KAP25 TJVQ-TJSJ
Flight info
| Callsign | KAP25 |
|---|---|
| Flight time | 0h 13m |
| Altitude | 6000 |
| Route | CHAKA DCT SNGRA DCT REKUA |
| Aircraft | C414/L-SBDFGRY/S |
Departure
| Time | 2026-04-29 01:25 |
|---|---|
| Airport | Antonio Rivera Rodriguez Airport (TJVQ) |
Arrival
| Time | 2026-04-29 01:38 |
|---|---|
| Airport | Luis Munoz Marin International Airport (TJSJ) |
| Time | Latitude | Longitude | Altitude | Speed | Heading |
|---|---|---|---|---|---|
| 2026-04-29 01:13 | 18.13489 | -65.48795 | 39 ft | 0 kts | 14° |
| 2026-04-29 01:19 | 18.13500 | -65.48801 | 39 ft | 6 kts | 313° |
| 2026-04-29 01:20 | 18.13518 | -65.48819 | 37 ft | 0 kts | 318° |
| 2026-04-29 01:20 | 18.13521 | -65.48822 | 37 ft | 3 kts | 327° |
| 2026-04-29 01:21 | 18.13529 | -65.48858 | 37 ft | 10 kts | 255° |
| 2026-04-29 01:21 | 18.13510 | -65.48940 | 37 ft | 13 kts | 257° |
| 2026-04-29 01:21 | 18.13485 | -65.49048 | 37 ft | 16 kts | 256° |
| 2026-04-29 01:21 | 18.13455 | -65.49163 | 37 ft | 16 kts | 250° |
| 2026-04-29 01:22 | 18.13421 | -65.49275 | 37 ft | 16 kts | 257° |
| 2026-04-29 01:22 | 18.13393 | -65.49389 | 37 ft | 16 kts | 256° |
| 2026-04-29 01:22 | 18.13368 | -65.49503 | 37 ft | 16 kts | 257° |
| 2026-04-29 01:22 | 18.13344 | -65.49605 | 37 ft | 2 kts | 256° |
| 2026-04-29 01:23 | 18.13334 | -65.49649 | 37 ft | 15 kts | 254° |
| 2026-04-29 01:23 | 18.13311 | -65.49750 | 37 ft | 13 kts | 259° |
| 2026-04-29 01:23 | 18.13289 | -65.49848 | 37 ft | 20 kts | 255° |
| 2026-04-29 01:23 | 18.13291 | -65.49949 | 37 ft | 10 kts | 342° |
| 2026-04-29 01:24 | 18.13346 | -65.49959 | 38 ft | 5 kts | 33° |
| 2026-04-29 01:24 | 18.13384 | -65.49804 | 38 ft | 51 kts | 76° |
| 2026-04-29 01:24 | 18.13504 | -65.49280 | 90 ft | 87 kts | 77° |
| 2026-04-29 01:24 | 18.13686 | -65.48670 | 388 ft | 88 kts | 48° |
| 2026-04-29 01:25 | 18.14243 | -65.48500 | 733 ft | 94 kts | 342° |
| 2026-04-29 01:25 | 18.14864 | -65.48900 | 1009 ft | 116 kts | 327° |
| 2026-04-29 01:25 | 18.15557 | -65.49415 | 1371 ft | 127 kts | 329° |
| 2026-04-29 01:25 | 18.16315 | -65.49948 | 1717 ft | 137 kts | 329° |
| 2026-04-29 01:26 | 18.17160 | -65.50553 | 1961 ft | 155 kts | 329° |
| 2026-04-29 01:26 | 18.18107 | -65.51229 | 2074 ft | 176 kts | 328° |
| 2026-04-29 01:26 | 18.19195 | -65.51984 | 2080 ft | 197 kts | 328° |
| 2026-04-29 01:26 | 18.20380 | -65.52797 | 2065 ft | 209 kts | 328° |
| 2026-04-29 01:27 | 18.21607 | -65.53647 | 2047 ft | 217 kts | 328° |
| 2026-04-29 01:27 | 18.22889 | -65.54522 | 2010 ft | 221 kts | 329° |
| 2026-04-29 01:27 | 18.24195 | -65.55410 | 1967 ft | 223 kts | 329° |
| 2026-04-29 01:27 | 18.25493 | -65.56299 | 1928 ft | 223 kts | 328° |
| 2026-04-29 01:28 | 18.26795 | -65.57190 | 1882 ft | 223 kts | 328° |
| 2026-04-29 01:28 | 18.28091 | -65.58073 | 1932 ft | 218 kts | 328° |
| 2026-04-29 01:28 | 18.29341 | -65.58932 | 2100 ft | 212 kts | 328° |
| 2026-04-29 01:28 | 18.30562 | -65.59772 | 2265 ft | 208 kts | 328° |
| 2026-04-29 01:29 | 18.31766 | -65.60605 | 2433 ft | 207 kts | 328° |
| 2026-04-29 01:29 | 18.32966 | -65.61433 | 2600 ft | 206 kts | 328° |
| 2026-04-29 01:29 | 18.34126 | -65.62308 | 2765 ft | 205 kts | 324° |
| 2026-04-29 01:29 | 18.35250 | -65.63235 | 2936 ft | 205 kts | 323° |
| 2026-04-29 01:30 | 18.36366 | -65.64180 | 3103 ft | 207 kts | 318° |
| 2026-04-29 01:30 | 18.37220 | -65.65400 | 3271 ft | 208 kts | 303° |
| 2026-04-29 01:30 | 18.37883 | -65.66751 | 3435 ft | 208 kts | 294° |
| 2026-04-29 01:30 | 18.38420 | -65.68164 | 3604 ft | 208 kts | 292° |
| 2026-04-29 01:31 | 18.38946 | -65.69582 | 3774 ft | 208 kts | 292° |
| 2026-04-29 01:31 | 18.39400 | -65.71058 | 3774 ft | 217 kts | 287° |
| 2026-04-29 01:31 | 18.39825 | -65.72609 | 3708 ft | 224 kts | 287° |
| 2026-04-29 01:31 | 18.40207 | -65.74193 | 3593 ft | 230 kts | 279° |
| 2026-04-29 01:32 | 18.40384 | -65.75899 | 3480 ft | 233 kts | 275° |
| 2026-04-29 01:32 | 18.40523 | -65.77604 | 3363 ft | 235 kts | 275° |
| 2026-04-29 01:32 | 18.40662 | -65.79320 | 3247 ft | 235 kts | 275° |
| 2026-04-29 01:32 | 18.40751 | -65.81022 | 3113 ft | 236 kts | 268° |
| 2026-04-29 01:33 | 18.40681 | -65.81937 | 2997 ft | 229 kts | 264° |
| 2026-04-29 01:33 | 18.40443 | -65.83355 | 3019 ft | 214 kts | 256° |
| 2026-04-29 01:33 | 18.40010 | -65.84841 | 2963 ft | 209 kts | 251° |
| 2026-04-29 01:33 | 18.39610 | -65.86265 | 3016 ft | 196 kts | 261° |
| 2026-04-29 01:34 | 18.39548 | -65.87658 | 3054 ft | 191 kts | 271° |
| 2026-04-29 01:34 | 18.39550 | -65.87719 | 3058 ft | 191 kts | 272° |
| 2026-04-29 01:35 | 18.39588 | -65.88649 | 3025 ft | 193 kts | 272° |
| 2026-04-29 01:35 | 18.39637 | -65.89830 | 2815 ft | 209 kts | 272° |
| 2026-04-29 01:35 | 18.39695 | -65.91380 | 2590 ft | 211 kts | 272° |
| 2026-04-29 01:36 | 18.39767 | -65.92866 | 2339 ft | 193 kts | 274° |
| 2026-04-29 01:36 | 18.39891 | -65.94265 | 1749 ft | 192 kts | 277° |
| 2026-04-29 01:36 | 18.40023 | -65.95621 | 1496 ft | 178 kts | 276° |
| 2026-04-29 01:36 | 18.40155 | -65.96852 | 1422 ft | 160 kts | 278° |
| 2026-04-29 01:37 | 18.40331 | -65.97989 | 1257 ft | 160 kts | 281° |
| 2026-04-29 01:37 | 18.40392 | -65.98340 | 1190 ft | 157 kts | 281° |
| 2026-04-29 01:38 | 18.40576 | -65.99303 | 1139 ft | 137 kts | 283° |
| 2026-04-29 01:38 | 18.40766 | -66.00126 | 569 ft | 115 kts | 286° |
| 2026-04-29 01:39 | 18.41052 | -66.00771 | 564 ft | 108 kts | 315° |
| 2026-04-29 01:39 | 18.41664 | -66.01157 | 617 ft | 102 kts | 343° |
| 2026-04-29 01:39 | 18.42364 | -66.01300 | 583 ft | 107 kts | 353° |
| 2026-04-29 01:40 | 18.43104 | -66.01421 | 396 ft | 102 kts | 349° |
| 2026-04-29 01:40 | 18.43763 | -66.01496 | 147 ft | 90 kts | 36° |
| 2026-04-29 01:40 | 18.44083 | -66.00974 | 17 ft | 80 kts | 68° |
| 2026-04-29 01:40 | 18.44277 | -66.00503 | 12 ft | 54 kts | 65° |
| 2026-04-29 01:41 | 18.44162 | -66.00283 | 12 ft | 15 kts | 212° |
| 2026-04-29 01:42 | 18.44129 | -66.00284 | 12 ft | 4 kts | 154° |
| 2026-04-29 01:42 | 18.44126 | -66.00283 | 12 ft | 0 kts | 158° |